Time;durP1;ratioP1;P1;durP2;ratioP2;P2;SDS_P1;SDS_P2;PMS_P1;PMS_P2;Temp;Humidity;BMP_temperature;BMP_pressure;BME280_temperature;BME280_humidity;BME280_pressure;Samples;Min_cycle;Max_cycle;Signal;HPM_P1;HPM_P2
2022/08/24 00:01:26;;;;;;;12.02;4.95;;;20.80;99.90;;;;;;4990564;28;20448;-84
2022/08/24 00:03:56;;;;;;;16.02;5.28;;;20.80;99.90;;;;;;4977869;28;20399;-84
2022/08/24 00:06:27;;;;;;;13.93;5.73;;;20.90;99.90;;;;;;5003986;28;20409;-84
2022/08/24 00:08:57;;;;;;;16.15;5.72;;;20.80;99.90;;;;;;5003039;28;20420;-84
2022/08/24 00:11:26;;;;;;;12.93;4.80;;;20.80;99.90;;;;;;4990489;28;20834;-83
2022/08/24 00:13:54;;;;;;;13.03;5.20;;;20.80;99.90;;;;;;4992288;28;20401;-84
2022/08/24 00:16:22;;;;;;;9.70;4.70;;;20.80;99.90;;;;;;4994266;28;20409;-83
2022/08/24 00:18:50;;;;;;;15.82;4.85;;;20.80;99.90;;;;;;4993066;28;20520;-84
2022/08/24 00:21:18;;;;;;;11.98;4.80;;;20.80;99.90;;;;;;4994204;28;20416;-84
2022/08/24 00:23:47;;;;;;;13.20;4.80;;;20.70;99.90;;;;;;4994186;28;20401;-84
2022/08/24 00:26:15;;;;;;;14.63;5.10;;;20.70;99.90;;;;;;4993887;28;20404;-83
2022/08/24 00:28:55;;;;;;;11.52;5.20;;;20.70;99.90;;;;;;4992853;28;20467;-84
2022/08/24 00:31:24;;;;;;;14.75;5.30;;;20.80;99.90;;;;;;4989505;28;20461;-84
2022/08/24 00:33:53;;;;;;;13.05;4.93;;;20.70;99.90;;;;;;4992803;28;20444;-83
2022/08/24 00:36:23;;;;;;;13.43;5.28;;;20.70;99.90;;;;;;4973767;28;20453;-85
2022/08/24 00:38:52;;;;;;;11.30;5.00;;;20.70;99.90;;;;;;4985745;28;20417;-83
2022/08/24 00:41:21;;;;;;;17.65;5.20;;;20.70;99.90;;;;;;4990134;28;20402;-84
2022/08/24 00:44:00;;;;;;;18.08;6.03;;;20.60;99.90;;;;;;4989177;28;20409;-83
2022/08/24 00:46:42;;;;;;;15.40;5.10;;;20.60;99.90;;;;;;4989728;28;20404;-84
2022/08/24 00:49:22;;;;;;;14.70;5.03;;;20.60;99.90;;;;;;4986019;28;21204;-83
2022/08/24 00:52:14;;;;;;;13.95;5.30;;;20.50;99.90;;;;;;4991862;28;20475;-84
2022/08/24 00:54:46;;;;;;;15.05;5.32;;;20.50;99.90;;;;;;4975964;28;20419;-84
2022/08/24 00:57:19;;;;;;;11.75;5.25;;;20.50;99.90;;;;;;5007650;28;20424;-84
2022/08/24 00:59:54;;;;;;;15.45;5.70;;;20.50;99.90;;;;;;4993649;28;20385;-85
2022/08/24 01:02:25;;;;;;;12.60;5.38;;;20.50;99.90;;;;;;4992128;28;20413;-84
2022/08/24 01:04:57;;;;;;;14.43;5.65;;;20.50;99.90;;;;;;4999980;28;20491;-83
2022/08/24 01:07:28;;;;;;;8.57;4.78;;;20.40;99.90;;;;;;4992299;28;20401;-83
2022/08/24 01:10:00;;;;;;;11.53;5.10;;;20.40;99.90;;;;;;4993173;28;20879;-84
2022/08/24 01:12:32;;;;;;;13.05;5.22;;;20.40;99.90;;;;;;5008553;28;20488;-82
2022/08/24 01:15:03;;;;;;;12.52;5.63;;;20.40;99.90;;;;;;4992123;28;20443;-85
2022/08/24 01:20:19;;;;;;;11.40;5.45;;;20.40;99.90;;;;;;5006173;28;20437;-84
2022/08/24 01:23:01;;;;;;;13.27;5.50;;;20.40;99.90;;;;;;4993154;28;20667;-83
2022/08/24 01:25:32;;;;;;;14.63;5.80;;;20.40;99.90;;;;;;4996828;28;20408;-84
2022/08/24 01:28:07;;;;;;;15.70;5.97;;;20.30;99.90;;;;;;4989283;28;20432;-84
2022/08/24 01:30:36;;;;;;;13.10;5.60;;;20.30;99.90;;;;;;5002200;28;20969;-84
2022/08/24 01:33:08;;;;;;;16.55;5.78;;;20.30;99.90;;;;;;5007898;28;20397;-85
2022/08/24 01:35:38;;;;;;;11.75;5.55;;;20.20;99.90;;;;;;4990673;28;20422;-84
2022/08/24 01:38:10;;;;;;;14.43;5.88;;;20.20;99.90;;;;;;4991770;28;20419;-83
2022/08/24 01:40:45;;;;;;;12.15;5.60;;;20.20;99.90;;;;;;4992000;28;20895;-84
2022/08/24 01:43:13;;;;;;;14.50;6.22;;;20.20;99.90;;;;;;4991551;28;20408;-85
2022/08/24 01:45:42;;;;;;;10.00;5.25;;;20.10;99.90;;;;;;4989787;28;20757;-83
2022/08/24 01:48:10;;;;;;;13.20;5.68;;;20.10;99.90;;;;;;5007684;28;20468;-84
2022/08/24 01:50:38;;;;;;;13.35;5.55;;;20.10;99.90;;;;;;4982938;28;20811;-84
2022/08/24 01:53:08;;;;;;;14.43;6.57;;;20.10;99.90;;;;;;5008226;28;20412;-84
2022/08/24 01:55:36;;;;;;;14.60;6.10;;;20.10;99.90;;;;;;5001730;28;20412;-83
2022/08/24 01:58:04;;;;;;;13.23;6.13;;;20.00;99.90;;;;;;4991054;28;20903;-84
2022/08/24 02:00:34;;;;;;;17.27;6.80;;;20.00;99.90;;;;;;4992179;28;20401;-84
2022/08/24 02:03:03;;;;;;;14.48;5.80;;;20.00;99.90;;;;;;5007997;28;20385;-83
2022/08/24 02:05:32;;;;;;;13.38;5.93;;;19.90;99.90;;;;;;5001663;28;20451;-84
2022/08/24 02:08:00;;;;;;;12.32;5.90;;;19.90;99.90;;;;;;4991141;28;20913;-83
2022/08/24 02:10:28;;;;;;;14.48;5.93;;;20.00;99.90;;;;;;4990209;28;20400;-83
2022/08/24 02:12:58;;;;;;;13.63;5.88;;;20.00;99.90;;;;;;4998957;28;20825;-84
2022/08/24 02:15:32;;;;;;;12.77;5.90;;;19.90;99.90;;;;;;4974694;28;20415;-83
2022/08/24 02:18:03;;;;;;;16.65;6.40;;;19.90;99.90;;;;;;4982365;28;20453;-84
2022/08/24 02:20:31;;;;;;;13.77;6.40;;;19.90;99.90;;;;;;5007058;28;20408;-85
2022/08/24 02:22:59;;;;;;;12.73;6.32;;;19.80;99.90;;;;;;4992140;28;20451;-84
2022/08/24 02:25:29;;;;;;;13.10;6.45;;;19.90;99.90;;;;;;4990467;28;20405;-84
2022/08/24 02:27:59;;;;;;;13.60;5.93;;;19.80;99.90;;;;;;4991912;28;20411;-84
2022/08/24 02:30:28;;;;;;;15.10;6.80;;;19.80;99.90;;;;;;4990720;28;20496;-85
2022/08/24 02:32:57;;;;;;;13.95;7.35;;;19.80;99.90;;;;;;4990552;28;20407;-84
2022/08/24 02:35:27;;;;;;;14.55;6.20;;;19.80;99.90;;;;;;4992336;28;20389;-84
2022/08/24 02:37:55;;;;;;;10.77;5.97;;;19.80;99.90;;;;;;5000991;28;20503;-83
2022/08/24 02:40:23;;;;;;;12.52;5.95;;;19.80;99.90;;;;;;5006844;28;20463;-83
2022/08/24 02:42:52;;;;;;;15.38;7.47;;;19.80;99.90;;;;;;5006216;28;20412;-83
2022/08/24 02:45:20;;;;;;;12.95;5.90;;;19.70;99.90;;;;;;4987002;28;20435;-84
2022/08/24 02:47:49;;;;;;;15.00;6.22;;;19.70;99.90;;;;;;5006647;28;20404;-83
2022/08/24 02:50:18;;;;;;;13.80;6.32;;;19.70;99.90;;;;;;4997731;28;20413;-83
2022/08/24 02:52:46;;;;;;;15.45;5.95;;;19.70;99.90;;;;;;4970382;28;20760;-83
2022/08/24 02:55:17;;;;;;;14.50;6.47;;;19.70;99.90;;;;;;5000463;28;20843;-83
2022/08/24 02:57:50;;;;;;;12.13;6.15;;;19.70;99.90;;;;;;4980443;28;20488;-83
2022/08/24 03:00:20;;;;;;;13.88;6.85;;;19.70;99.90;;;;;;5004641;28;20476;-83
2022/08/24 03:02:53;;;;;;;14.85;6.60;;;19.60;99.90;;;;;;5006094;28;20500;-83
2022/08/24 03:05:22;;;;;;;13.02;5.80;;;19.70;99.90;;;;;;4990492;28;20405;-83
2022/08/24 03:07:50;;;;;;;14.53;6.13;;;19.70;99.90;;;;;;4974565;28;20467;-83
2022/08/24 03:10:20;;;;;;;13.45;6.18;;;19.70;99.90;;;;;;4983518;28;20390;-83
2022/08/24 03:12:49;;;;;;;11.48;5.78;;;19.70;99.90;;;;;;4975374;28;20432;-82
2022/08/24 03:15:22;;;;;;;14.90;5.90;;;19.60;99.90;;;;;;4982490;28;20400;-84
2022/08/24 03:17:50;;;;;;;11.63;5.80;;;19.70;99.90;;;;;;4990021;28;20409;-83
2022/08/24 03:20:21;;;;;;;14.68;6.18;;;19.70;99.90;;;;;;4990113;28;20437;-83
2022/08/24 03:22:50;;;;;;;15.63;7.30;;;19.60;99.90;;;;;;4996544;28;20408;-83
2022/08/24 03:25:19;;;;;;;12.13;6.22;;;19.60;99.90;;;;;;4999854;28;20495;-83
2022/08/24 03:27:47;;;;;;;15.55;6.55;;;19.60;99.90;;;;;;4999100;28;20503;-84
2022/08/24 03:30:17;;;;;;;14.25;6.47;;;19.60;99.90;;;;;;4993876;28;20411;-83
2022/08/24 03:32:47;;;;;;;12.98;6.50;;;19.50;99.90;;;;;;5004630;28;20907;-84
2022/08/24 03:35:16;;;;;;;10.00;6.05;;;19.50;99.90;;;;;;5010212;28;20430;-83
2022/08/24 03:37:44;;;;;;;15.38;6.95;;;19.50;99.90;;;;;;4993717;28;20408;-84
2022/08/24 03:40:14;;;;;;;14.38;7.15;;;19.50;99.90;;;;;;4992188;28;20415;-84
2022/08/24 03:42:55;;;;;;;10.93;6.07;;;19.50;99.90;;;;;;5009613;28;20416;-83
2022/08/24 03:45:23;;;;;;;12.90;6.90;;;19.50;99.90;;;;;;4993202;28;20409;-83
2022/08/24 03:47:52;;;;;;;13.48;7.03;;;19.50;99.90;;;;;;4994237;28;20521;-84
2022/08/24 03:50:21;;;;;;;13.95;7.13;;;19.50;99.90;;;;;;5009981;28;20415;-83
2022/08/24 03:52:50;;;;;;;9.43;6.40;;;19.50;99.90;;;;;;4991319;28;20818;-83
2022/08/24 03:55:18;;;;;;;12.30;6.55;;;19.40;99.90;;;;;;4998665;28;20753;-82
2022/08/24 03:57:46;;;;;;;12.82;6.32;;;19.40;99.90;;;;;;4993563;28;20408;-83
2022/08/24 04:00:15;;;;;;;14.93;7.55;;;19.50;99.90;;;;;;4993396;28;20417;-84
2022/08/24 04:02:52;;;;;;;12.98;6.80;;;19.40;99.90;;;;;;5007751;28;20416;-84
2022/08/24 04:05:22;;;;;;;12.93;6.80;;;19.40;99.90;;;;;;4996470;28;20455;-82
2022/08/24 04:07:49;;;;;;;13.23;7.37;;;19.40;99.90;;;;;;4994153;28;20415;-82
2022/08/24 04:10:18;;;;;;;11.07;7.17;;;19.50;99.90;;;;;;4989222;28;20395;-84
2022/08/24 04:12:46;;;;;;;13.65;8.18;;;19.40;99.90;;;;;;5009308;28;20412;-83
2022/08/24 04:15:14;;;;;;;14.53;7.77;;;19.50;99.90;;;;;;4993164;28;20409;-83
2022/08/24 04:17:43;;;;;;;14.48;7.45;;;19.40;99.90;;;;;;4992866;28;20445;-83
2022/08/24 04:20:11;;;;;;;25.23;9.30;;;19.40;99.90;;;;;;4992560;28;20412;-85
2022/08/24 04:22:40;;;;;;;17.42;9.20;;;19.40;99.90;;;;;;4993148;28;20400;-83
2022/08/24 04:25:09;;;;;;;23.27;9.90;;;19.30;99.90;;;;;;4989673;28;20407;-84
2022/08/24 04:27:39;;;;;;;17.10;10.00;;;19.40;99.90;;;;;;4991840;28;20416;-84
2022/08/24 04:30:09;;;;;;;19.13;9.10;;;19.40;99.90;;;;;;4994943;28;20433;-83
2022/08/24 04:33:01;;;;;;;15.73;8.40;;;19.40;99.90;;;;;;4985860;28;20412;-85
2022/08/24 04:35:29;;;;;;;15.60;8.88;;;19.40;99.90;;;;;;4992313;28;20420;-84
2022/08/24 04:37:57;;;;;;;18.65;9.68;;;19.40;99.90;;;;;;4976918;28;20419;-83
2022/08/24 04:40:25;;;;;;;16.75;9.20;;;19.40;99.90;;;;;;4992593;28;20942;-83
2022/08/24 04:42:53;;;;;;;15.32;8.57;;;19.40;99.90;;;;;;4988847;28;20553;-83
2022/08/24 04:45:22;;;;;;;15.30;8.50;;;19.40;99.90;;;;;;5008909;28;20413;-84
2022/08/24 04:47:50;;;;;;;15.55;8.40;;;19.40;99.90;;;;;;4994288;28;20420;-84
2022/08/24 04:50:19;;;;;;;23.85;9.70;;;19.50;99.90;;;;;;5008760;28;20417;-83
2022/08/24 04:52:51;;;;;;;21.92;9.32;;;19.50;99.90;;;;;;5000105;28;20467;-84
2022/08/24 04:55:19;;;;;;;16.50;9.57;;;19.50;99.90;;;;;;4990445;28;20403;-82
2022/08/24 04:57:47;;;;;;;17.42;8.93;;;19.50;99.90;;;;;;4976546;28;20441;-83
2022/08/24 05:00:15;;;;;;;15.25;9.13;;;19.50;99.90;;;;;;4975862;28;20394;-83
2022/08/24 05:02:43;;;;;;;14.93;9.38;;;19.40;99.90;;;;;;4992125;28;20416;-82
2022/08/24 05:05:13;;;;;;;17.17;9.13;;;19.40;99.90;;;;;;4990939;28;20416;-83
2022/08/24 05:07:43;;;;;;;17.15;8.90;;;19.50;99.90;;;;;;4991698;28;20409;-83
2022/08/24 05:10:13;;;;;;;16.85;9.10;;;19.40;99.90;;;;;;4992065;28;20931;-83
2022/08/24 05:12:41;;;;;;;15.57;8.65;;;19.40;99.90;;;;;;5000901;28;20831;-82
2022/08/24 05:15:11;;;;;;;13.85;8.88;;;19.40;99.90;;;;;;4991961;28;20405;-82
2022/08/24 05:17:42;;;;;;;18.80;9.07;;;19.40;99.90;;;;;;4991258;28;20413;-82
2022/08/24 05:20:19;;;;;;;18.45;9.55;;;19.50;99.90;;;;;;4992962;28;20799;-83
2022/08/24 05:22:46;;;;;;;17.48;9.13;;;19.50;99.90;;;;;;4975277;28;20951;-83
2022/08/24 05:25:18;;;;;;;14.65;9.23;;;19.50;99.90;;;;;;4992542;28;20780;-82
2022/08/24 05:27:47;;;;;;;18.40;9.80;;;19.50;99.90;;;;;;4988925;28;21021;-82
2022/08/24 05:30:15;;;;;;;18.60;9.27;;;19.60;99.90;;;;;;5003165;28;20508;-84
2022/08/24 05:32:43;;;;;;;17.40;9.88;;;19.60;99.90;;;;;;4970609;28;20422;-83
2022/08/24 05:35:11;;;;;;;17.63;9.48;;;19.60;99.90;;;;;;5006297;28;20428;-84
2022/08/24 05:37:39;;;;;;;16.17;9.60;;;19.60;99.90;;;;;;4991466;28;20412;-84
2022/08/24 05:40:15;;;;;;;16.98;10.00;;;19.60;99.90;;;;;;5007325;28;20433;-84
2022/08/24 05:42:47;;;;;;;15.23;9.27;;;19.60;99.90;;;;;;4991653;28;20405;-83
2022/08/24 05:45:15;;;;;;;16.40;9.17;;;19.70;99.90;;;;;;4991730;28;20413;-84
2022/08/24 05:47:44;;;;;;;16.35;10.50;;;19.70;99.90;;;;;;4991186;28;20409;-83
2022/08/24 05:50:35;;;;;;;16.42;10.18;;;19.70;99.90;;;;;;4982140;28;20508;-84
2022/08/24 05:53:03;;;;;;;14.00;8.93;;;19.70;99.90;;;;;;4998299;28;20922;-83
2022/08/24 05:55:31;;;;;;;16.50;9.57;;;19.70;99.90;;;;;;4975401;28;20452;-84
2022/08/24 05:57:59;;;;;;;15.73;9.57;;;19.70;99.90;;;;;;4987928;28;20406;-83
2022/08/24 06:00:27;;;;;;;18.60;9.93;;;19.80;99.90;;;;;;4992570;28;20395;-83
2022/08/24 06:02:55;;;;;;;17.30;9.20;;;19.80;99.90;;;;;;4992620;28;20412;-84
2022/08/24 06:05:23;;;;;;;15.80;9.63;;;19.80;99.90;;;;;;4991292;28;20455;-84
2022/08/24 06:07:51;;;;;;;17.02;10.10;;;19.80;99.90;;;;;;4991471;28;20966;-83
2022/08/24 06:10:19;;;;;;;15.32;9.63;;;19.90;99.90;;;;;;4980796;28;20402;-84
2022/08/24 06:13:05;;;;;;;15.13;9.63;;;19.90;99.90;;;;;;4985956;28;20401;-83
2022/08/24 06:15:34;;;;;;;17.30;9.77;;;19.90;99.90;;;;;;4978967;28;20547;-84
2022/08/24 06:18:03;;;;;;;14.52;9.35;;;19.90;99.90;;;;;;4983924;28;20444;-84
2022/08/24 06:20:32;;;;;;;16.15;9.68;;;19.90;99.90;;;;;;4990965;28;20404;-84
2022/08/24 06:23:00;;;;;;;17.13;9.57;;;20.00;99.90;;;;;;4990900;28;20448;-84
2022/08/24 06:28:25;;;;;;;18.38;9.48;;;20.10;99.90;;;;;;4984885;28;20456;-84
2022/08/24 06:31:05;;;;;;;18.08;10.45;;;20.10;99.90;;;;;;4990790;28;20463;-84
2022/08/24 06:33:33;;;;;;;18.92;9.95;;;20.20;99.90;;;;;;4984736;28;20453;-84
2022/08/24 06:36:02;;;;;;;16.53;9.93;;;20.20;99.90;;;;;;5003963;28;20394;-83
2022/08/24 06:38:30;;;;;;;18.60;10.50;;;20.30;99.90;;;;;;4991443;28;20465;-84
2022/08/24 06:40:58;;;;;;;17.15;10.02;;;20.30;99.90;;;;;;5007435;28;20405;-85
2022/08/24 06:43:26;;;;;;;21.20;9.75;;;20.30;99.90;;;;;;5007461;28;20409;-85
2022/08/24 06:45:59;;;;;;;17.70;9.63;;;20.40;99.90;;;;;;5007497;28;20456;-84
2022/08/24 06:48:32;;;;;;;19.33;10.45;;;20.40;99.90;;;;;;4975083;28;20401;-82
2022/08/24 06:51:00;;;;;;;17.90;9.02;;;20.50;99.90;;;;;;5006799;28;20408;-83
2022/08/24 06:53:28;;;;;;;15.48;9.90;;;20.50;99.90;;;;;;4992386;28;20440;-84
2022/08/24 06:55:58;;;;;;;19.40;10.32;;;20.70;99.90;;;;;;4991092;28;20456;-84
2022/08/24 06:58:28;;;;;;;18.35;10.30;;;20.70;99.90;;;;;;4990188;28;20434;-84
2022/08/24 07:00:57;;;;;;;15.75;9.77;;;20.80;99.90;;;;;;5007462;28;20455;-84
2022/08/24 07:03:26;;;;;;;18.17;9.73;;;20.80;99.90;;;;;;4992531;28;20794;-84
2022/08/24 07:06:03;;;;;;;17.80;9.88;;;20.80;99.90;;;;;;4991200;28;20409;-84
2022/08/24 07:08:41;;;;;;;20.43;10.37;;;20.90;99.90;;;;;;4991258;28;20405;-84
2022/08/24 07:11:16;;;;;;;17.03;10.03;;;20.90;99.90;;;;;;4991054;28;20397;-84
2022/08/24 07:13:46;;;;;;;14.88;9.80;;;21.00;99.90;;;;;;5007338;28;20451;-85
2022/08/24 07:16:16;;;;;;;17.45;9.55;;;21.10;99.90;;;;;;4991008;28;20392;-84
2022/08/24 07:18:47;;;;;;;20.75;10.18;;;21.10;99.90;;;;;;4991244;28;20423;-85
2022/08/24 07:21:19;;;;;;;20.88;10.57;;;21.10;99.90;;;;;;4992254;28;20388;-84
2022/08/24 07:23:53;;;;;;;20.50;10.05;;;21.20;99.90;;;;;;5006647;28;20454;-82
2022/08/24 07:26:23;;;;;;;20.13;10.18;;;21.30;99.90;;;;;;5007179;28;20399;-82
2022/08/24 07:28:59;;;;;;;17.63;10.00;;;21.30;99.90;;;;;;5006877;28;20399;-84
2022/08/24 07:31:36;;;;;;;16.23;9.73;;;21.40;99.90;;;;;;4990849;28;20415;-84
2022/08/24 07:34:25;;;;;;;15.85;9.88;;;21.40;99.90;;;;;;5007221;28;20401;-84
2022/08/24 07:36:54;;;;;;;17.52;10.35;;;21.40;99.90;;;;;;4990518;28;20424;-84
2022/08/24 07:39:22;;;;;;;17.63;10.27;;;21.50;99.90;;;;;;5007183;28;20424;-84
2022/08/24 07:41:50;;;;;;;16.05;9.98;;;21.70;99.90;;;;;;5007149;28;20389;-84
2022/08/24 07:44:38;;;;;;;16.80;10.30;;;21.70;99.90;;;;;;4990928;28;20432;-83
2022/08/24 07:47:06;;;;;;;17.93;9.90;;;21.80;99.90;;;;;;4991086;28;20447;-84
2022/08/24 07:49:55;;;;;;;18.02;10.05;;;21.80;99.90;;;;;;4977610;28;20485;-84
2022/08/24 07:52:23;;;;;;;14.27;10.10;;;21.90;99.90;;;;;;5006647;28;20393;-83
2022/08/24 07:54:51;;;;;;;16.50;9.77;;;21.90;99.90;;;;;;5007151;28;20397;-84
2022/08/24 07:57:19;;;;;;;18.83;10.23;;;22.00;99.90;;;;;;5006828;28;20431;-85
2022/08/24 07:59:47;;;;;;;15.93;9.40;;;22.00;99.90;;;;;;4991864;28;20452;-84
2022/08/24 08:02:15;;;;;;;15.73;9.93;;;22.10;99.90;;;;;;4991794;28;20417;-84
2022/08/24 08:04:47;;;;;;;18.35;9.68;;;22.20;99.90;;;;;;5006966;28;20440;-84
2022/08/24 08:07:16;;;;;;;14.63;9.93;;;22.20;99.90;;;;;;5006851;28;20509;-85
2022/08/24 08:09:51;;;;;;;17.48;10.27;;;22.40;99.90;;;;;;4991491;28;20892;-84
2022/08/24 08:12:19;;;;;;;15.25;9.85;;;22.50;99.90;;;;;;5010250;28;20401;-84
2022/08/24 08:14:54;;;;;;;16.65;9.98;;;22.60;99.90;;;;;;4993811;28;20408;-84
2022/08/24 08:17:22;;;;;;;15.30;9.57;;;22.60;99.90;;;;;;4993845;28;20453;-85
2022/08/24 08:19:49;;;;;;;17.35;9.80;;;22.60;99.90;;;;;;4977818;28;20425;-84
2022/08/24 08:25:30;;;;;;;13.88;9.85;;;23.00;99.90;;;;;;4994850;28;20401;-84
2022/08/24 08:28:01;;;;;;;19.97;10.33;;;22.90;99.90;;;;;;5010344;28;20459;-85
2022/08/24 08:30:49;;;;;;;17.27;10.55;;;23.00;99.90;;;;;;5007501;28;20952;-84
2022/08/24 08:33:19;;;;;;;16.17;10.43;;;23.10;99.90;;;;;;5009996;28;20407;-85
2022/08/24 08:35:49;;;;;;;18.55;10.60;;;23.20;99.90;;;;;;5009735;28;20403;-84
2022/08/24 08:38:17;;;;;;;16.77;10.98;;;23.20;99.90;;;;;;5009606;28;20467;-84
2022/08/24 08:40:44;;;;;;;16.42;10.20;;;23.40;99.90;;;;;;5009899;28;20397;-85
2022/08/24 08:43:31;;;;;;;15.93;10.45;;;23.40;99.90;;;;;;4993610;28;20393;-84
2022/08/24 08:46:13;;;;;;;22.38;11.07;;;23.40;99.90;;;;;;5009552;28;20393;-84
2022/08/24 08:49:31;;;;;;;18.83;11.05;;;23.70;99.90;;;;;;5007295;28;20755;-84
2022/08/24 08:52:05;;;;;;;20.98;10.80;;;23.90;99.90;;;;;;5009382;28;20437;-83
2022/08/24 08:55:02;;;;;;;18.38;10.88;;;23.80;99.90;;;;;;4993413;28;20879;-84
2022/08/24 08:57:54;;;;;;;15.77;10.40;;;23.90;99.90;;;;;;4955515;28;20452;-84
2022/08/24 09:00:44;;;;;;;17.05;10.60;;;23.90;99.90;;;;;;5009581;28;20413;-84
2022/08/24 09:04:06;;;;;;;16.35;10.57;;;24.00;99.90;;;;;;4994315;28;20467;-84
2022/08/24 09:07:10;;;;;;;17.98;10.52;;;24.00;99.90;;;;;;4921848;28;20513;-86
2022/08/24 09:10:22;;;;;;;15.45;10.30;;;24.10;99.90;;;;;;5008482;28;20483;-84
2022/08/24 09:13:02;;;;;;;15.45;9.95;;;24.40;99.90;;;;;;4993908;28;20455;-84
2022/08/24 09:15:58;;;;;;;24.83;11.07;;;24.40;99.90;;;;;;4992949;28;20456;-84
2022/08/24 09:18:37;;;;;;;17.87;10.27;;;24.50;99.90;;;;;;4993925;28;20852;-85
2022/08/24 09:21:40;;;;;;;17.90;10.73;;;24.60;99.90;;;;;;4992048;28;20397;-84
2022/08/24 09:24:41;;;;;;;18.70;10.33;;;24.70;99.90;;;;;;5008771;28;20799;-84
2022/08/24 09:27:52;;;;;;;17.40;10.57;;;24.80;99.90;;;;;;5006416;28;20405;-84
2022/08/24 09:30:26;;;;;;;16.10;9.85;;;24.80;99.90;;;;;;4992758;28;20457;-85
2022/08/24 09:33:19;;;;;;;17.73;10.17;;;24.80;99.90;;;;;;4992959;28;20393;-84
2022/08/24 09:36:00;;;;;;;16.83;10.30;;;25.00;99.90;;;;;;4993974;28;20408;-85
2022/08/24 09:38:46;;;;;;;19.85;10.55;;;25.10;99.90;;;;;;5008582;28;20507;-84
2022/08/24 09:41:24;;;;;;;18.95;9.85;;;25.10;99.90;;;;;;5008835;28;20396;-84
2022/08/24 09:44:16;;;;;;;17.95;10.88;;;25.10;99.90;;;;;;4990889;28;20405;-84
2022/08/24 09:46:59;;;;;;;17.45;10.63;;;25.40;99.90;;;;;;5008221;28;20457;-83
2022/08/24 09:49:29;;;;;;;14.10;9.87;;;25.50;99.90;;;;;;4991970;28;20389;-83
2022/08/24 09:52:42;;;;;;;16.38;10.43;;;25.50;99.90;;;;;;4984645;28;20412;-83
2022/08/24 09:55:33;;;;;;;16.60;9.80;;;25.70;99.90;;;;;;5008015;28;20763;-85
2022/08/24 09:58:25;;;;;;;15.15;9.23;;;25.80;99.90;;;;;;4987872;28;20410;-83
2022/08/24 10:01:17;;;;;;;16.37;9.37;;;26.00;99.90;;;;;;5001764;28;20752;-82
2022/08/24 10:04:07;;;;;;;19.33;10.70;;;26.00;99.90;;;;;;4973231;28;20387;-81
2022/08/24 10:07:01;;;;;;;19.40;10.90;;;26.20;99.90;;;;;;4995778;28;20416;-82
2022/08/24 10:09:56;;;;;;;16.90;9.77;;;26.10;99.90;;;;;;5007736;28;20397;-82
2022/08/24 10:12:37;;;;;;;15.52;9.70;;;26.10;99.90;;;;;;5007955;28;20455;-82
2022/08/24 10:15:13;;;;;;;17.75;9.50;;;26.30;99.90;;;;;;4984699;28;20395;-83
2022/08/24 10:17:41;;;;;;;16.88;9.77;;;26.20;99.90;;;;;;4973208;28;20407;-84
2022/08/24 10:20:48;;;;;;;15.00;8.88;;;26.50;99.90;;;;;;4987992;28;21072;-84
2022/08/24 10:23:34;;;;;;;13.23;9.30;;;26.40;99.90;;;;;;4991343;28;20890;-84
2022/08/24 10:26:20;;;;;;;15.95;9.10;;;26.40;99.90;;;;;;5007614;28;20389;-83
2022/08/24 10:29:25;;;;;;;14.45;8.57;;;26.20;99.90;;;;;;5007579;28;20399;-83
2022/08/24 10:32:18;;;;;;;13.82;8.48;;;26.30;99.90;;;;;;5004680;28;20909;-81
2022/08/24 10:35:05;;;;;;;12.77;8.90;;;26.40;99.90;;;;;;4980857;28;20772;-83
2022/08/24 10:41:33;;;;;;;15.18;9.63;;;26.80;99.90;;;;;;4982553;28;20751;-82
2022/08/24 10:44:48;;;;;;;12.45;9.02;;;26.80;99.90;;;;;;4982162;28;20397;-82
2022/08/24 10:47:25;;;;;;;14.52;9.23;;;26.90;99.90;;;;;;4981874;28;20401;-82
2022/08/24 10:50:20;;;;;;;15.10;9.38;;;27.00;99.90;;;;;;4984785;28;20406;-81
2022/08/24 10:52:52;;;;;;;12.75;9.57;;;27.10;99.90;;;;;;4985002;28;20412;-83
2022/08/24 10:55:22;;;;;;;14.88;9.57;;;27.10;99.90;;;;;;5005478;28;20412;-83
2022/08/24 10:58:24;;;;;;;12.00;9.20;;;27.00;99.90;;;;;;4984778;28;20393;-84
2022/08/24 11:00:53;;;;;;;14.65;9.48;;;27.20;99.90;;;;;;4985072;28;20874;-83
2022/08/24 11:03:25;;;;;;;13.27;9.43;;;27.30;99.90;;;;;;5006984;28;20420;-85
2022/08/24 11:05:56;;;;;;;15.52;9.32;;;27.40;99.90;;;;;;4992985;28;20491;-84
2022/08/24 11:08:29;;;;;;;13.52;9.32;;;27.40;99.90;;;;;;4992064;28;20468;-84
2022/08/24 11:11:12;;;;;;;14.65;9.50;;;27.50;99.90;;;;;;4992030;28;20413;-84
2022/08/24 11:13:59;;;;;;;16.95;9.38;;;27.50;99.90;;;;;;5007132;28;20432;-85
2022/08/24 11:16:40;;;;;;;14.33;9.50;;;27.70;99.90;;;;;;4990897;28;20425;-85
2022/08/24 11:19:12;;;;;;;14.38;9.75;;;27.70;99.90;;;;;;4996140;28;20455;-83
2022/08/24 11:21:50;;;;;;;17.60;10.30;;;27.70;99.90;;;;;;4992109;28;20443;-84
2022/08/24 11:24:18;;;;;;;18.97;10.20;;;27.70;99.90;;;;;;5007073;28;20871;-84
2022/08/24 11:27:16;;;;;;;15.40;10.00;;;27.80;99.90;;;;;;4982334;28;20497;-85
2022/08/24 11:29:50;;;;;;;17.80;9.77;;;27.80;99.90;;;;;;4991172;28;20388;-84
2022/08/24 11:32:39;;;;;;;18.73;9.80;;;27.80;99.90;;;;;;4991958;28;20480;-84
2022/08/24 11:35:24;;;;;;;18.55;10.55;;;27.60;99.90;;;;;;4991727;28;20405;-83
2022/08/24 11:38:07;;;;;;;14.45;9.77;;;27.50;99.90;;;;;;4990629;28;20443;-84
2022/08/24 11:40:41;;;;;;;17.73;9.88;;;27.50;99.90;;;;;;4974558;28;20389;-84
2022/08/24 11:43:34;;;;;;;21.63;9.93;;;27.70;99.90;;;;;;4990622;28;20404;-84
2022/08/24 11:46:24;;;;;;;17.55;9.50;;;28.00;99.90;;;;;;4993830;28;20399;-83
2022/08/24 11:49:02;;;;;;;14.80;9.88;;;28.00;99.90;;;;;;4963409;28;20478;-84
2022/08/24 11:51:51;;;;;;;12.60;9.30;;;28.10;99.90;;;;;;4977444;28;20394;-84
2022/08/24 11:54:24;;;;;;;20.83;11.05;;;28.00;99.90;;;;;;4995341;28;20397;-84
2022/08/24 11:57:16;;;;;;;20.67;10.05;;;28.10;99.90;;;;;;4995216;28;20427;-84
2022/08/24 12:00:03;;;;;;;14.13;9.73;;;28.00;99.90;;;;;;5010034;28;20412;-84
2022/08/24 12:03:04;;;;;;;16.10;9.60;;;28.10;99.90;;;;;;4974741;28;20383;-84
2022/08/24 12:05:56;;;;;;;17.83;9.63;;;28.20;99.90;;;;;;4958444;28;20406;-83
2022/08/24 12:09:04;;;;;;;16.38;10.05;;;28.20;99.90;;;;;;4974468;28;20419;-84
2022/08/24 12:11:59;;;;;;;15.55;9.40;;;28.30;99.90;;;;;;4937328;28;20463;-83
2022/08/24 12:14:59;;;;;;;14.80;9.50;;;28.40;99.90;;;;;;4990482;28;20410;-83
2022/08/24 12:17:34;;;;;;;13.98;9.75;;;28.40;99.90;;;;;;4972156;28;20423;-84
2022/08/24 12:20:32;;;;;;;27.17;10.65;;;28.70;99.90;;;;;;4975247;28;20413;-82
2022/08/24 12:23:07;;;;;;;16.08;9.82;;;28.80;99.90;;;;;;4968912;28;20403;-83
2022/08/24 12:28:28;;;;;;;16.90;10.05;;;28.90;99.90;;;;;;4975320;28;20390;-83
2022/08/24 12:31:01;;;;;;;17.52;9.75;;;29.00;99.90;;;;;;4990179;28;20425;-83
2022/08/24 12:33:32;;;;;;;16.55;9.95;;;28.90;99.90;;;;;;4988326;28;20401;-83
2022/08/24 12:36:14;;;;;;;18.52;9.57;;;28.90;99.90;;;;;;5009540;28;20397;-83
2022/08/24 12:38:48;;;;;;;16.20;9.77;;;28.90;99.90;;;;;;5002083;28;20421;-83
2022/08/24 12:42:01;;;;;;;16.05;9.55;;;28.70;99.90;;;;;;4982492;28;20771;-84
2022/08/24 12:44:57;;;;;;;16.65;10.02;;;28.70;99.90;;;;;;4973274;28;20899;-84
2022/08/24 12:47:51;;;;;;;15.60;10.07;;;28.50;99.90;;;;;;4991785;28;20717;-84
2022/08/24 12:50:32;;;;;;;15.23;9.27;;;28.40;99.90;;;;;;4974891;28;20425;-83
2022/08/24 12:53:20;;;;;;;15.27;9.65;;;28.40;99.90;;;;;;4989573;28;20402;-84
2022/08/24 12:56:12;;;;;;;13.70;9.07;;;28.30;99.90;;;;;;4973340;28;20901;-85
2022/08/24 12:59:18;;;;;;;15.98;9.02;;;28.40;99.90;;;;;;4991708;28;20408;-83
2022/08/24 13:02:14;;;;;;;15.65;9.38;;;28.70;99.90;;;;;;4990366;28;20474;-84
2022/08/24 13:04:58;;;;;;;16.30;8.63;;;28.90;99.90;;;;;;4955990;28;20963;-83
2022/08/24 13:07:38;;;;;;;19.27;9.27;;;28.80;99.90;;;;;;5000263;28;20469;-84
2022/08/24 13:10:36;;;;;;;22.70;9.50;;;28.80;99.90;;;;;;5006687;28;20401;-83
2022/08/24 13:13:04;;;;;;;14.97;9.57;;;28.80;99.90;;;;;;4985889;28;20501;-85
2022/08/24 13:15:32;;;;;;;19.55;10.23;;;28.80;99.90;;;;;;5002690;28;20421;-84
2022/08/24 13:18:06;;;;;;;23.30;9.80;;;28.80;99.90;;;;;;4993707;28;20460;-84
2022/08/24 13:20:37;;;;;;;17.33;9.43;;;28.90;99.90;;;;;;4976709;28;20532;-84
2022/08/24 13:23:11;;;;;;;14.05;9.02;;;29.00;99.90;;;;;;4995318;28;20803;-84
2022/08/24 13:25:54;;;;;;;13.20;9.10;;;28.90;99.90;;;;;;4993671;28;20863;-85
2022/08/24 13:28:22;;;;;;;15.27;9.63;;;28.70;99.90;;;;;;4993610;28;20397;-84
2022/08/24 13:30:53;;;;;;;14.88;9.35;;;28.50;99.90;;;;;;4993636;28;20859;-84
2022/08/24 13:33:42;;;;;;;17.67;9.23;;;28.50;99.90;;;;;;4993472;28;20416;-84
2022/08/24 13:36:28;;;;;;;17.73;10.05;;;28.30;99.90;;;;;;4993356;28;20933;-84